sensor_id;sensor_type;location;lat;lon;timestamp;P1;durP1;ratioP1;P2;durP2;ratioP2
49824;SDS011;35714;55.708;37.478;2023-02-18T00:01:14;17.88;;;8.68;;
49824;SDS011;35714;55.708;37.478;2023-02-18T00:03:41;20.88;;;9.32;;
49824;SDS011;35714;55.708;37.478;2023-02-18T00:06:17;20.35;;;9.98;;
49824;SDS011;35714;55.708;37.478;2023-02-18T00:08:45;19.30;;;10.05;;
49824;SDS011;35714;55.708;37.478;2023-02-18T00:11:12;17.38;;;7.50;;
49824;SDS011;35714;55.708;37.478;2023-02-18T00:13:39;20.17;;;9.98;;
49824;SDS011;35714;55.708;37.478;2023-02-18T00:16:05;24.35;;;11.10;;
49824;SDS011;35714;55.708;37.478;2023-02-18T00:18:33;16.90;;;8.32;;
49824;SDS011;35714;55.708;37.478;2023-02-18T00:20:59;20.02;;;8.30;;
49824;SDS011;35714;55.708;37.478;2023-02-18T00:23:24;18.67;;;9.57;;
49824;SDS011;35714;55.708;37.478;2023-02-18T00:26:00;21.08;;;9.20;;
49824;SDS011;35714;55.708;37.478;2023-02-18T00:28:27;16.08;;;8.35;;
49824;SDS011;35714;55.708;37.478;2023-02-18T00:30:53;19.83;;;9.65;;
49824;SDS011;35714;55.708;37.478;2023-02-18T00:33:19;21.13;;;10.20;;
49824;SDS011;35714;55.708;37.478;2023-02-18T00:35:45;20.02;;;9.15;;
49824;SDS011;35714;55.708;37.478;2023-02-18T00:38:13;17.90;;;8.88;;
49824;SDS011;35714;55.708;37.478;2023-02-18T00:40:40;20.85;;;9.40;;
49824;SDS011;35714;55.708;37.478;2023-02-18T00:43:06;20.48;;;10.38;;
49824;SDS011;35714;55.708;37.478;2023-02-18T00:45:32;18.52;;;8.02;;
49824;SDS011;35714;55.708;37.478;2023-02-18T00:47:58;18.77;;;9.02;;
49824;SDS011;35714;55.708;37.478;2023-02-18T00:50:23;17.63;;;8.32;;
49824;SDS011;35714;55.708;37.478;2023-02-18T00:52:49;18.50;;;8.85;;
49824;SDS011;35714;55.708;37.478;2023-02-18T00:55:15;17.73;;;9.05;;
49824;SDS011;35714;55.708;37.478;2023-02-18T00:57:41;18.60;;;6.93;;
49824;SDS011;35714;55.708;37.478;2023-02-18T01:00:07;11.57;;;6.43;;
49824;SDS011;35714;55.708;37.478;2023-02-18T01:02:33;15.80;;;7.40;;
49824;SDS011;35714;55.708;37.478;2023-02-18T01:04:59;16.73;;;7.57;;
49824;SDS011;35714;55.708;37.478;2023-02-18T01:07:25;16.35;;;8.02;;
49824;SDS011;35714;55.708;37.478;2023-02-18T01:09:51;16.58;;;7.10;;
49824;SDS011;35714;55.708;37.478;2023-02-18T01:12:17;19.92;;;9.70;;
49824;SDS011;35714;55.708;37.478;2023-02-18T01:14:43;19.05;;;10.23;;
49824;SDS011;35714;55.708;37.478;2023-02-18T01:17:08;17.23;;;9.07;;
49824;SDS011;35714;55.708;37.478;2023-02-18T01:19:34;19.70;;;10.25;;
49824;SDS011;35714;55.708;37.478;2023-02-18T01:22:00;19.30;;;9.73;;
49824;SDS011;35714;55.708;37.478;2023-02-18T01:24:26;21.58;;;10.85;;
49824;SDS011;35714;55.708;37.478;2023-02-18T01:26:52;18.15;;;9.18;;
49824;SDS011;35714;55.708;37.478;2023-02-18T01:29:17;15.35;;;7.95;;
49824;SDS011;35714;55.708;37.478;2023-02-18T01:31:43;20.65;;;9.82;;
49824;SDS011;35714;55.708;37.478;2023-02-18T01:34:08;21.60;;;9.73;;
49824;SDS011;35714;55.708;37.478;2023-02-18T01:36:34;26.67;;;9.15;;
49824;SDS011;35714;55.708;37.478;2023-02-18T01:39:00;18.23;;;9.05;;
49824;SDS011;35714;55.708;37.478;2023-02-18T01:41:25;23.25;;;9.15;;
49824;SDS011;35714;55.708;37.478;2023-02-18T01:46:53;14.68;;;6.53;;
49824;SDS011;35714;55.708;37.478;2023-02-18T01:49:30;21.42;;;9.98;;
49824;SDS011;35714;55.708;37.478;2023-02-18T01:52:04;16.80;;;6.72;;
49824;SDS011;35714;55.708;37.478;2023-02-18T01:54:35;20.95;;;10.30;;
49824;SDS011;35714;55.708;37.478;2023-02-18T01:57:08;20.63;;;9.38;;
49824;SDS011;35714;55.708;37.478;2023-02-18T01:59:58;25.33;;;10.32;;
49824;SDS011;35714;55.708;37.478;2023-02-18T02:02:45;17.10;;;8.82;;
49824;SDS011;35714;55.708;37.478;2023-02-18T02:05:13;22.65;;;8.27;;
49824;SDS011;35714;55.708;37.478;2023-02-18T02:07:40;21.92;;;9.77;;
49824;SDS011;35714;55.708;37.478;2023-02-18T02:10:07;28.52;;;11.35;;
49824;SDS011;35714;55.708;37.478;2023-02-18T02:15:34;20.58;;;9.25;;
49824;SDS011;35714;55.708;37.478;2023-02-18T02:35:15;21.00;;;8.32;;
49824;SDS011;35714;55.708;37.478;2023-02-18T02:37:49;18.35;;;8.38;;
49824;SDS011;35714;55.708;37.478;2023-02-18T02:40:22;22.80;;;7.50;;
49824;SDS011;35714;55.708;37.478;2023-02-18T02:48:35;15.55;;;8.05;;
49824;SDS011;35714;55.708;37.478;2023-02-18T02:54:24;21.38;;;9.75;;
49824;SDS011;35714;55.708;37.478;2023-02-18T02:59:55;20.27;;;9.88;;
49824;SDS011;35714;55.708;37.478;2023-02-18T03:02:40;15.40;;;8.10;;
49824;SDS011;35714;55.708;37.478;2023-02-18T03:19:39;16.48;;;7.82;;
49824;SDS011;35714;55.708;37.478;2023-02-18T03:22:12;15.43;;;7.15;;
49824;SDS011;35714;55.708;37.478;2023-02-18T03:24:49;17.55;;;8.75;;
49824;SDS011;35714;55.708;37.478;2023-02-18T03:29:48;16.85;;;8.40;;
49824;SDS011;35714;55.708;37.478;2023-02-18T03:32:20;21.98;;;9.80;;
49824;SDS011;35714;55.708;37.478;2023-02-18T03:34:49;22.77;;;9.90;;
49824;SDS011;35714;55.708;37.478;2023-02-18T03:37:19;21.08;;;10.23;;
49824;SDS011;35714;55.708;37.478;2023-02-18T03:39:48;13.20;;;6.53;;
49824;SDS011;35714;55.708;37.478;2023-02-18T03:42:23;13.38;;;5.18;;
49824;SDS011;35714;55.708;37.478;2023-02-18T03:44:50;17.33;;;9.23;;
49824;SDS011;35714;55.708;37.478;2023-02-18T03:47:16;18.42;;;8.65;;
49824;SDS011;35714;55.708;37.478;2023-02-18T03:49:42;17.67;;;7.53;;
49824;SDS011;35714;55.708;37.478;2023-02-18T03:52:07;12.98;;;6.38;;
49824;SDS011;35714;55.708;37.478;2023-02-18T03:54:33;18.48;;;8.18;;
49824;SDS011;35714;55.708;37.478;2023-02-18T03:56:59;20.92;;;9.70;;
49824;SDS011;35714;55.708;37.478;2023-02-18T03:59:25;25.55;;;11.18;;
49824;SDS011;35714;55.708;37.478;2023-02-18T04:01:50;32.38;;;13.35;;
49824;SDS011;35714;55.708;37.478;2023-02-18T04:04:16;36.58;;;14.80;;
49824;SDS011;35714;55.708;37.478;2023-02-18T04:06:41;43.50;;;16.05;;
49824;SDS011;35714;55.708;37.478;2023-02-18T04:09:07;38.70;;;15.45;;
49824;SDS011;35714;55.708;37.478;2023-02-18T04:11:39;39.17;;;17.33;;
49824;SDS011;35714;55.708;37.478;2023-02-18T04:14:05;38.85;;;16.55;;
49824;SDS011;35714;55.708;37.478;2023-02-18T04:16:31;34.40;;;15.30;;
49824;SDS011;35714;55.708;37.478;2023-02-18T04:18:57;35.13;;;15.32;;
49824;SDS011;35714;55.708;37.478;2023-02-18T04:21:23;21.83;;;10.40;;
49824;SDS011;35714;55.708;37.478;2023-02-18T04:23:48;32.67;;;14.98;;
49824;SDS011;35714;55.708;37.478;2023-02-18T04:26:14;32.28;;;14.90;;
49824;SDS011;35714;55.708;37.478;2023-02-18T04:28:40;37.40;;;15.15;;
49824;SDS011;35714;55.708;37.478;2023-02-18T04:31:05;25.63;;;10.48;;
49824;SDS011;35714;55.708;37.478;2023-02-18T04:33:31;31.35;;;14.00;;
49824;SDS011;35714;55.708;37.478;2023-02-18T04:35:57;25.45;;;10.93;;
49824;SDS011;35714;55.708;37.478;2023-02-18T04:38:22;24.35;;;9.65;;
49824;SDS011;35714;55.708;37.478;2023-02-18T04:40:48;38.15;;;15.40;;
49824;SDS011;35714;55.708;37.478;2023-02-18T04:43:13;24.85;;;10.88;;
49824;SDS011;35714;55.708;37.478;2023-02-18T04:45:39;28.92;;;13.68;;
49824;SDS011;35714;55.708;37.478;2023-02-18T04:48:05;29.48;;;13.30;;
49824;SDS011;35714;55.708;37.478;2023-02-18T04:50:30;24.52;;;11.77;;
49824;SDS011;35714;55.708;37.478;2023-02-18T04:52:56;24.88;;;10.55;;
49824;SDS011;35714;55.708;37.478;2023-02-18T04:55:22;22.13;;;9.68;;
49824;SDS011;35714;55.708;37.478;2023-02-18T04:57:48;26.80;;;12.23;;
49824;SDS011;35714;55.708;37.478;2023-02-18T05:00:14;27.80;;;10.50;;
49824;SDS011;35714;55.708;37.478;2023-02-18T05:02:41;18.67;;;8.48;;
49824;SDS011;35714;55.708;37.478;2023-02-18T05:05:08;24.13;;;10.50;;
49824;SDS011;35714;55.708;37.478;2023-02-18T05:07:34;28.42;;;11.70;;
49824;SDS011;35714;55.708;37.478;2023-02-18T05:09:59;20.77;;;10.57;;
49824;SDS011;35714;55.708;37.478;2023-02-18T05:12:25;21.08;;;9.95;;
49824;SDS011;35714;55.708;37.478;2023-02-18T05:14:50;26.27;;;11.82;;
49824;SDS011;35714;55.708;37.478;2023-02-18T05:17:16;21.67;;;10.90;;
49824;SDS011;35714;55.708;37.478;2023-02-18T05:19:42;22.10;;;10.95;;
49824;SDS011;35714;55.708;37.478;2023-02-18T05:22:07;22.70;;;10.73;;
49824;SDS011;35714;55.708;37.478;2023-02-18T05:24:33;27.77;;;12.65;;
49824;SDS011;35714;55.708;37.478;2023-02-18T05:26:58;20.02;;;10.05;;
49824;SDS011;35714;55.708;37.478;2023-02-18T05:29:24;18.73;;;9.20;;
49824;SDS011;35714;55.708;37.478;2023-02-18T05:31:50;27.88;;;12.57;;
49824;SDS011;35714;55.708;37.478;2023-02-18T05:34:16;22.85;;;10.63;;
49824;SDS011;35714;55.708;37.478;2023-02-18T05:36:42;21.85;;;10.52;;
49824;SDS011;35714;55.708;37.478;2023-02-18T05:39:08;27.85;;;13.00;;
49824;SDS011;35714;55.708;37.478;2023-02-18T05:41:33;22.25;;;9.75;;
49824;SDS011;35714;55.708;37.478;2023-02-18T05:43:59;23.75;;;11.68;;
49824;SDS011;35714;55.708;37.478;2023-02-18T05:46:43;23.95;;;11.18;;
49824;SDS011;35714;55.708;37.478;2023-02-18T05:49:09;16.02;;;8.30;;
49824;SDS011;35714;55.708;37.478;2023-02-18T05:51:34;19.58;;;9.85;;
49824;SDS011;35714;55.708;37.478;2023-02-18T05:54:00;19.70;;;8.15;;
49824;SDS011;35714;55.708;37.478;2023-02-18T05:56:26;19.17;;;9.65;;
49824;SDS011;35714;55.708;37.478;2023-02-18T05:58:51;18.90;;;9.07;;
49824;SDS011;35714;55.708;37.478;2023-02-18T06:01:17;17.13;;;9.40;;
49824;SDS011;35714;55.708;37.478;2023-02-18T06:03:42;28.90;;;12.63;;
49824;SDS011;35714;55.708;37.478;2023-02-18T06:06:08;23.55;;;11.35;;
49824;SDS011;35714;55.708;37.478;2023-02-18T06:08:34;24.98;;;12.35;;
49824;SDS011;35714;55.708;37.478;2023-02-18T06:11:00;22.85;;;10.32;;
49824;SDS011;35714;55.708;37.478;2023-02-18T06:13:25;19.75;;;8.68;;
49824;SDS011;35714;55.708;37.478;2023-02-18T06:15:51;21.73;;;9.70;;
49824;SDS011;35714;55.708;37.478;2023-02-18T06:18:18;23.73;;;12.45;;
49824;SDS011;35714;55.708;37.478;2023-02-18T06:20:45;22.55;;;11.63;;
49824;SDS011;35714;55.708;37.478;2023-02-18T06:23:12;22.05;;;10.88;;
49824;SDS011;35714;55.708;37.478;2023-02-18T06:25:38;18.77;;;8.63;;
49824;SDS011;35714;55.708;37.478;2023-02-18T06:28:04;22.92;;;11.63;;
49824;SDS011;35714;55.708;37.478;2023-02-18T06:30:29;32.15;;;12.52;;
49824;SDS011;35714;55.708;37.478;2023-02-18T06:32:55;24.02;;;10.77;;
49824;SDS011;35714;55.708;37.478;2023-02-18T06:35:21;25.40;;;12.65;;
49824;SDS011;35714;55.708;37.478;2023-02-18T06:37:46;23.52;;;12.25;;
49824;SDS011;35714;55.708;37.478;2023-02-18T06:40:12;20.73;;;10.45;;
49824;SDS011;35714;55.708;37.478;2023-02-18T06:42:38;26.80;;;11.60;;
49824;SDS011;35714;55.708;37.478;2023-02-18T06:45:03;23.48;;;10.05;;
49824;SDS011;35714;55.708;37.478;2023-02-18T06:47:31;23.70;;;12.60;;
49824;SDS011;35714;55.708;37.478;2023-02-18T06:49:57;23.52;;;12.13;;
49824;SDS011;35714;55.708;37.478;2023-02-18T06:52:23;19.70;;;9.65;;
49824;SDS011;35714;55.708;37.478;2023-02-18T06:54:49;22.42;;;11.98;;
49824;SDS011;35714;55.708;37.478;2023-02-18T06:57:14;18.67;;;8.57;;
49824;SDS011;35714;55.708;37.478;2023-02-18T06:59:40;23.48;;;11.98;;
49824;SDS011;35714;55.708;37.478;2023-02-18T07:02:06;21.33;;;10.73;;
49824;SDS011;35714;55.708;37.478;2023-02-18T07:04:31;27.65;;;12.40;;
49824;SDS011;35714;55.708;37.478;2023-02-18T07:06:57;19.35;;;9.57;;
49824;SDS011;35714;55.708;37.478;2023-02-18T07:09:23;20.60;;;9.45;;
49824;SDS011;35714;55.708;37.478;2023-02-18T07:11:48;22.80;;;9.50;;
49824;SDS011;35714;55.708;37.478;2023-02-18T07:14:14;19.17;;;8.90;;
49824;SDS011;35714;55.708;37.478;2023-02-18T07:16:39;16.17;;;8.15;;
49824;SDS011;35714;55.708;37.478;2023-02-18T07:19:06;17.90;;;7.35;;
49824;SDS011;35714;55.708;37.478;2023-02-18T07:21:31;20.05;;;10.23;;
49824;SDS011;35714;55.708;37.478;2023-02-18T07:23:57;15.48;;;7.40;;
49824;SDS011;35714;55.708;37.478;2023-02-18T07:26:22;17.70;;;6.60;;
49824;SDS011;35714;55.708;37.478;2023-02-18T07:28:48;11.75;;;6.00;;
49824;SDS011;35714;55.708;37.478;2023-02-18T07:31:14;13.98;;;7.18;;
49824;SDS011;35714;55.708;37.478;2023-02-18T07:33:40;15.18;;;7.40;;
49824;SDS011;35714;55.708;37.478;2023-02-18T07:36:06;12.65;;;5.78;;
49824;SDS011;35714;55.708;37.478;2023-02-18T07:38:32;14.15;;;6.35;;
49824;SDS011;35714;55.708;37.478;2023-02-18T07:40:57;14.02;;;6.28;;
49824;SDS011;35714;55.708;37.478;2023-02-18T07:43:24;13.45;;;6.88;;
49824;SDS011;35714;55.708;37.478;2023-02-18T07:45:49;11.55;;;6.05;;
49824;SDS011;35714;55.708;37.478;2023-02-18T07:48:15;12.23;;;6.30;;
49824;SDS011;35714;55.708;37.478;2023-02-18T07:50:42;10.98;;;5.15;;
49824;SDS011;35714;55.708;37.478;2023-02-18T07:53:09;11.18;;;6.07;;
49824;SDS011;35714;55.708;37.478;2023-02-18T07:55:37;7.80;;;3.88;;
49824;SDS011;35714;55.708;37.478;2023-02-18T08:00:42;12.23;;;5.63;;
49824;SDS011;35714;55.708;37.478;2023-02-18T08:03:07;10.43;;;5.03;;
49824;SDS011;35714;55.708;37.478;2023-02-18T08:05:33;12.80;;;5.78;;
49824;SDS011;35714;55.708;37.478;2023-02-18T08:07:58;9.73;;;4.88;;
49824;SDS011;35714;55.708;37.478;2023-02-18T08:10:24;9.98;;;5.07;;
49824;SDS011;35714;55.708;37.478;2023-02-18T08:12:50;9.77;;;4.30;;
49824;SDS011;35714;55.708;37.478;2023-02-18T08:15:15;13.55;;;6.13;;
49824;SDS011;35714;55.708;37.478;2023-02-18T08:17:41;12.15;;;6.28;;
49824;SDS011;35714;55.708;37.478;2023-02-18T08:20:07;14.27;;;5.50;;
49824;SDS011;35714;55.708;37.478;2023-02-18T08:22:34;9.80;;;5.05;;
49824;SDS011;35714;55.708;37.478;2023-02-18T08:24:59;9.65;;;5.32;;
49824;SDS011;35714;55.708;37.478;2023-02-18T08:27:25;8.40;;;4.53;;
49824;SDS011;35714;55.708;37.478;2023-02-18T08:29:50;11.05;;;6.65;;
49824;SDS011;35714;55.708;37.478;2023-02-18T08:32:16;10.70;;;5.75;;
49824;SDS011;35714;55.708;37.478;2023-02-18T08:34:42;8.75;;;4.68;;
49824;SDS011;35714;55.708;37.478;2023-02-18T08:37:08;8.60;;;4.20;;
49824;SDS011;35714;55.708;37.478;2023-02-18T08:39:34;10.05;;;4.95;;
49824;SDS011;35714;55.708;37.478;2023-02-18T08:42:00;10.50;;;4.88;;
49824;SDS011;35714;55.708;37.478;2023-02-18T08:44:26;9.13;;;4.95;;
49824;SDS011;35714;55.708;37.478;2023-02-18T08:46:52;7.15;;;3.78;;
49824;SDS011;35714;55.708;37.478;2023-02-18T08:49:18;8.48;;;4.10;;
49824;SDS011;35714;55.708;37.478;2023-02-18T08:51:51;7.75;;;3.40;;
49824;SDS011;35714;55.708;37.478;2023-02-18T08:54:17;7.22;;;3.53;;
49824;SDS011;35714;55.708;37.478;2023-02-18T08:56:43;7.05;;;3.88;;
49824;SDS011;35714;55.708;37.478;2023-02-18T08:59:08;10.52;;;5.18;;
49824;SDS011;35714;55.708;37.478;2023-02-18T09:01:34;8.40;;;3.90;;
49824;SDS011;35714;55.708;37.478;2023-02-18T09:04:00;9.45;;;3.78;;
49824;SDS011;35714;55.708;37.478;2023-02-18T09:06:26;5.93;;;3.25;;
49824;SDS011;35714;55.708;37.478;2023-02-18T09:08:51;8.88;;;3.75;;
49824;SDS011;35714;55.708;37.478;2023-02-18T09:11:17;8.75;;;4.50;;
49824;SDS011;35714;55.708;37.478;2023-02-18T09:13:45;9.85;;;4.93;;
49824;SDS011;35714;55.708;37.478;2023-02-18T09:16:12;9.75;;;4.63;;
49824;SDS011;35714;55.708;37.478;2023-02-18T09:18:42;9.02;;;3.75;;
49824;SDS011;35714;55.708;37.478;2023-02-18T09:21:10;10.48;;;3.60;;
49824;SDS011;35714;55.708;37.478;2023-02-18T09:23:37;8.60;;;4.20;;
49824;SDS011;35714;55.708;37.478;2023-02-18T09:26:04;9.63;;;4.75;;
49824;SDS011;35714;55.708;37.478;2023-02-18T09:28:32;9.07;;;4.07;;
49824;SDS011;35714;55.708;37.478;2023-02-18T09:33:59;7.93;;;4.45;;
49824;SDS011;35714;55.708;37.478;2023-02-18T09:36:27;7.38;;;3.65;;
49824;SDS011;35714;55.708;37.478;2023-02-18T09:38:53;7.03;;;2.60;;
49824;SDS011;35714;55.708;37.478;2023-02-18T09:44:00;11.63;;;4.95;;
49824;SDS011;35714;55.708;37.478;2023-02-18T09:46:32;7.45;;;4.20;;
49824;SDS011;35714;55.708;37.478;2023-02-18T09:49:05;10.35;;;5.00;;
49824;SDS011;35714;55.708;37.478;2023-02-18T09:51:37;7.40;;;3.75;;
49824;SDS011;35714;55.708;37.478;2023-02-18T09:54:02;8.20;;;3.97;;
49824;SDS011;35714;55.708;37.478;2023-02-18T09:56:30;9.05;;;5.10;;
49824;SDS011;35714;55.708;37.478;2023-02-18T09:59:01;8.32;;;4.03;;
49824;SDS011;35714;55.708;37.478;2023-02-18T10:01:36;9.10;;;4.47;;
49824;SDS011;35714;55.708;37.478;2023-02-18T10:06:58;7.43;;;4.32;;
49824;SDS011;35714;55.708;37.478;2023-02-18T10:09:32;7.65;;;3.92;;
49824;SDS011;35714;55.708;37.478;2023-02-18T10:12:06;8.90;;;4.53;;
49824;SDS011;35714;55.708;37.478;2023-02-18T10:14:38;9.65;;;5.22;;
49824;SDS011;35714;55.708;37.478;2023-02-18T10:17:04;10.23;;;5.20;;
49824;SDS011;35714;55.708;37.478;2023-02-18T10:19:32;10.30;;;5.07;;
49824;SDS011;35714;55.708;37.478;2023-02-18T10:22:01;11.43;;;4.95;;
49824;SDS011;35714;55.708;37.478;2023-02-18T10:24:39;8.82;;;5.25;;
49824;SDS011;35714;55.708;37.478;2023-02-18T10:27:36;9.90;;;4.75;;
49824;SDS011;35714;55.708;37.478;2023-02-18T10:32:37;8.82;;;4.85;;
49824;SDS011;35714;55.708;37.478;2023-02-18T10:43:07;8.82;;;4.80;;
49824;SDS011;35714;55.708;37.478;2023-02-18T10:45:48;11.27;;;6.20;;
49824;SDS011;35714;55.708;37.478;2023-02-18T10:50:45;10.65;;;5.68;;
49824;SDS011;35714;55.708;37.478;2023-02-18T10:55:41;7.95;;;4.28;;
49824;SDS011;35714;55.708;37.478;2023-02-18T11:00:59;13.13;;;5.57;;
49824;SDS011;35714;55.708;37.478;2023-02-18T11:03:42;9.23;;;5.15;;
49824;SDS011;35714;55.708;37.478;2023-02-18T11:06:18;12.07;;;6.05;;
49824;SDS011;35714;55.708;37.478;2023-02-18T11:08:54;13.20;;;4.90;;
49824;SDS011;35714;55.708;37.478;2023-02-18T11:11:23;9.50;;;5.60;;
49824;SDS011;35714;55.708;37.478;2023-02-18T11:13:53;10.73;;;5.32;;
49824;SDS011;35714;55.708;37.478;2023-02-18T11:16:21;12.23;;;5.68;;
49824;SDS011;35714;55.708;37.478;2023-02-18T11:18:48;10.85;;;5.75;;
49824;SDS011;35714;55.708;37.478;2023-02-18T11:21:20;10.13;;;5.72;;
49824;SDS011;35714;55.708;37.478;2023-02-18T11:23:53;10.38;;;5.95;;
49824;SDS011;35714;55.708;37.478;2023-02-18T11:26:26;12.00;;;6.13;;
49824;SDS011;35714;55.708;37.478;2023-02-18T11:28:57;11.18;;;6.57;;
49824;SDS011;35714;55.708;37.478;2023-02-18T11:31:30;8.82;;;5.20;;
49824;SDS011;35714;55.708;37.478;2023-02-18T11:34:05;8.85;;;5.85;;
49824;SDS011;35714;55.708;37.478;2023-02-18T11:36:35;9.80;;;5.40;;
49824;SDS011;35714;55.708;37.478;2023-02-18T11:39:11;11.50;;;6.32;;
49824;SDS011;35714;55.708;37.478;2023-02-18T11:41:44;12.32;;;6.50;;
49824;SDS011;35714;55.708;37.478;2023-02-18T11:44:20;9.65;;;5.63;;
49824;SDS011;35714;55.708;37.478;2023-02-18T11:46:56;10.73;;;5.97;;
49824;SDS011;35714;55.708;37.478;2023-02-18T11:49:24;11.48;;;5.57;;
49824;SDS011;35714;55.708;37.478;2023-02-18T11:51:51;11.23;;;6.13;;
49824;SDS011;35714;55.708;37.478;2023-02-18T11:54:27;10.57;;;5.55;;
49824;SDS011;35714;55.708;37.478;2023-02-18T11:56:58;11.20;;;5.57;;
49824;SDS011;35714;55.708;37.478;2023-02-18T11:59:28;9.32;;;5.97;;
49824;SDS011;35714;55.708;37.478;2023-02-18T12:05:02;9.13;;;5.32;;
49824;SDS011;35714;55.708;37.478;2023-02-18T12:07:49;11.40;;;6.05;;
49824;SDS011;35714;55.708;37.478;2023-02-18T12:10:20;9.60;;;5.22;;
49824;SDS011;35714;55.708;37.478;2023-02-18T12:15:44;11.13;;;5.38;;
49824;SDS011;35714;55.708;37.478;2023-02-18T12:21:17;10.40;;;5.53;;
49824;SDS011;35714;55.708;37.478;2023-02-18T12:29:42;9.90;;;5.93;;
49824;SDS011;35714;55.708;37.478;2023-02-18T12:32:23;11.93;;;5.38;;
49824;SDS011;35714;55.708;37.478;2023-02-18T12:45:54;11.10;;;5.47;;
49824;SDS011;35714;55.708;37.478;2023-02-18T12:48:43;8.85;;;4.88;;
49824;SDS011;35714;55.708;37.478;2023-02-18T13:12:29;9.85;;;5.15;;
49824;SDS011;35714;55.708;37.478;2023-02-18T13:15:04;9.43;;;4.80;;
49824;SDS011;35714;55.708;37.478;2023-02-18T13:17:37;8.77;;;4.65;;
49824;SDS011;35714;55.708;37.478;2023-02-18T13:20:13;10.38;;;5.55;;
49824;SDS011;35714;55.708;37.478;2023-02-18T13:22:45;8.90;;;4.35;;
49824;SDS011;35714;55.708;37.478;2023-02-18T13:25:14;9.05;;;4.30;;
49824;SDS011;35714;55.708;37.478;2023-02-18T13:33:33;8.50;;;4.72;;
49824;SDS011;35714;55.708;37.478;2023-02-18T13:36:09;11.23;;;6.45;;
49824;SDS011;35714;55.708;37.478;2023-02-18T13:41:25;10.60;;;5.15;;
49824;SDS011;35714;55.708;37.478;2023-02-18T13:43:51;12.57;;;5.05;;
49824;SDS011;35714;55.708;37.478;2023-02-18T13:46:18;9.57;;;4.53;;
49824;SDS011;35714;55.708;37.478;2023-02-18T13:48:52;7.10;;;3.63;;
49824;SDS011;35714;55.708;37.478;2023-02-18T13:51:31;10.73;;;5.40;;
49824;SDS011;35714;55.708;37.478;2023-02-18T13:56:38;6.35;;;3.15;;
49824;SDS011;35714;55.708;37.478;2023-02-18T13:59:10;10.73;;;5.78;;
49824;SDS011;35714;55.708;37.478;2023-02-18T14:01:44;10.02;;;5.05;;
49824;SDS011;35714;55.708;37.478;2023-02-18T14:09:52;11.80;;;5.95;;
49824;SDS011;35714;55.708;37.478;2023-02-18T14:23:11;9.88;;;5.40;;
49824;SDS011;35714;55.708;37.478;2023-02-18T14:25:48;10.82;;;5.22;;
49824;SDS011;35714;55.708;37.478;2023-02-18T14:33:38;9.90;;;4.88;;
49824;SDS011;35714;55.708;37.478;2023-02-18T14:41:48;8.35;;;5.10;;
49824;SDS011;35714;55.708;37.478;2023-02-18T14:44:32;9.23;;;5.45;;
49824;SDS011;35714;55.708;37.478;2023-02-18T14:47:11;10.05;;;4.97;;
49824;SDS011;35714;55.708;37.478;2023-02-18T14:52:30;10.02;;;5.38;;
49824;SDS011;35714;55.708;37.478;2023-02-18T14:55:10;7.85;;;4.45;;
49824;SDS011;35714;55.708;37.478;2023-02-18T15:01:12;9.93;;;5.03;;
49824;SDS011;35714;55.708;37.478;2023-02-18T15:03:40;12.40;;;4.63;;
49824;SDS011;35714;55.708;37.478;2023-02-18T15:06:20;9.77;;;5.43;;
49824;SDS011;35714;55.708;37.478;2023-02-18T15:08:57;6.05;;;3.50;;
49824;SDS011;35714;55.708;37.478;2023-02-18T15:11:28;10.07;;;5.22;;
49824;SDS011;35714;55.708;37.478;2023-02-18T15:14:20;10.55;;;5.30;;
49824;SDS011;35714;55.708;37.478;2023-02-18T15:16:49;9.55;;;5.07;;
49824;SDS011;35714;55.708;37.478;2023-02-18T15:19:18;9.85;;;5.47;;
49824;SDS011;35714;55.708;37.478;2023-02-18T15:21:49;8.35;;;4.38;;
49824;SDS011;35714;55.708;37.478;2023-02-18T15:27:00;10.43;;;4.15;;
49824;SDS011;35714;55.708;37.478;2023-02-18T15:29:34;11.25;;;5.28;;
49824;SDS011;35714;55.708;37.478;2023-02-18T15:32:00;11.50;;;5.40;;
49824;SDS011;35714;55.708;37.478;2023-02-18T15:34:39;8.98;;;4.43;;
49824;SDS011;35714;55.708;37.478;2023-02-18T15:37:06;9.13;;;4.28;;
49824;SDS011;35714;55.708;37.478;2023-02-18T15:39:32;7.18;;;4.15;;
49824;SDS011;35714;55.708;37.478;2023-02-18T15:42:05;8.05;;;4.18;;
49824;SDS011;35714;55.708;37.478;2023-02-18T15:44:45;6.53;;;3.78;;
49824;SDS011;35714;55.708;37.478;2023-02-18T15:47:13;9.43;;;4.60;;
49824;SDS011;35714;55.708;37.478;2023-02-18T15:49:44;10.10;;;5.35;;
49824;SDS011;35714;55.708;37.478;2023-02-18T15:52:12;10.25;;;5.22;;
49824;SDS011;35714;55.708;37.478;2023-02-18T15:54:38;9.15;;;3.63;;
49824;SDS011;35714;55.708;37.478;2023-02-18T15:57:06;8.55;;;4.10;;
49824;SDS011;35714;55.708;37.478;2023-02-18T15:59:42;8.73;;;3.97;;
49824;SDS011;35714;55.708;37.478;2023-02-18T16:04:51;8.40;;;4.43;;
49824;SDS011;35714;55.708;37.478;2023-02-18T16:09:50;8.15;;;4.28;;
49824;SDS011;35714;55.708;37.478;2023-02-18T16:12:29;9.13;;;3.83;;
49824;SDS011;35714;55.708;37.478;2023-02-18T16:14:56;9.43;;;4.53;;
49824;SDS011;35714;55.708;37.478;2023-02-18T16:17:23;9.30;;;4.38;;
49824;SDS011;35714;55.708;37.478;2023-02-18T16:19:53;7.18;;;3.22;;
49824;SDS011;35714;55.708;37.478;2023-02-18T16:22:31;8.50;;;3.40;;
49824;SDS011;35714;55.708;37.478;2023-02-18T16:25:14;5.72;;;3.03;;
49824;SDS011;35714;55.708;37.478;2023-02-18T16:32:45;11.40;;;5.38;;
49824;SDS011;35714;55.708;37.478;2023-02-18T16:35:11;11.13;;;4.40;;
49824;SDS011;35714;55.708;37.478;2023-02-18T16:37:37;7.90;;;3.97;;
49824;SDS011;35714;55.708;37.478;2023-02-18T16:40:03;8.68;;;4.82;;
49824;SDS011;35714;55.708;37.478;2023-02-18T16:42:47;10.00;;;4.88;;
49824;SDS011;35714;55.708;37.478;2023-02-18T16:45:13;9.75;;;4.93;;
49824;SDS011;35714;55.708;37.478;2023-02-18T16:47:39;8.98;;;4.47;;
49824;SDS011;35714;55.708;37.478;2023-02-18T16:50:16;11.93;;;5.07;;
49824;SDS011;35714;55.708;37.478;2023-02-18T16:52:45;8.90;;;4.28;;
49824;SDS011;35714;55.708;37.478;2023-02-18T16:57:43;10.18;;;5.15;;
49824;SDS011;35714;55.708;37.478;2023-02-18T17:00:10;8.40;;;4.00;;
49824;SDS011;35714;55.708;37.478;2023-02-18T17:02:36;8.32;;;3.78;;
49824;SDS011;35714;55.708;37.478;2023-02-18T17:05:02;9.90;;;4.47;;
49824;SDS011;35714;55.708;37.478;2023-02-18T17:07:28;9.00;;;4.22;;
49824;SDS011;35714;55.708;37.478;2023-02-18T17:09:57;8.13;;;4.03;;
49824;SDS011;35714;55.708;37.478;2023-02-18T17:12:23;7.35;;;3.63;;
49824;SDS011;35714;55.708;37.478;2023-02-18T17:14:50;7.95;;;4.05;;
49824;SDS011;35714;55.708;37.478;2023-02-18T17:17:16;9.38;;;4.60;;
49824;SDS011;35714;55.708;37.478;2023-02-18T17:19:46;9.50;;;4.55;;
49824;SDS011;35714;55.708;37.478;2023-02-18T17:22:13;8.32;;;4.72;;
49824;SDS011;35714;55.708;37.478;2023-02-18T17:24:39;8.60;;;4.43;;
49824;SDS011;35714;55.708;37.478;2023-02-18T17:27:04;8.20;;;3.92;;
49824;SDS011;35714;55.708;37.478;2023-02-18T17:29:30;8.18;;;4.03;;
49824;SDS011;35714;55.708;37.478;2023-02-18T17:31:56;9.65;;;4.07;;
49824;SDS011;35714;55.708;37.478;2023-02-18T17:34:28;7.70;;;4.03;;
49824;SDS011;35714;55.708;37.478;2023-02-18T17:37:00;8.55;;;4.00;;
49824;SDS011;35714;55.708;37.478;2023-02-18T17:39:26;7.53;;;3.83;;
49824;SDS011;35714;55.708;37.478;2023-02-18T17:41:52;7.68;;;3.85;;